createdAt,value
2023-07-25T00:00:30.694Z,36.91
2023-07-25T00:03:19.032Z,37.15
2023-07-25T00:05:47.716Z,37.20
2023-07-25T00:08:16.088Z,37.02
2023-07-25T00:10:44.671Z,36.86
2023-07-25T00:13:14.423Z,36.83
2023-07-25T00:15:43.085Z,37.26
2023-07-25T00:18:11.372Z,37.09
2023-07-25T00:20:39.866Z,37.40
2023-07-25T00:23:08.317Z,37.25
2023-07-25T00:25:37.068Z,37.01
2023-07-25T00:28:05.566Z,37.08
2023-07-25T00:30:35.751Z,36.61
2023-07-25T00:33:04.210Z,37.09
2023-07-25T00:35:33.112Z,36.98
2023-07-25T00:38:01.384Z,36.86
2023-07-25T00:40:30.246Z,36.66
2023-07-25T00:43:02.299Z,36.17
2023-07-25T00:45:32.341Z,36.41
2023-07-25T00:48:02.314Z,35.96
2023-07-25T00:50:31.926Z,36.28
2023-07-25T00:53:01.844Z,36.05
2023-07-25T00:55:32.241Z,36.10
2023-07-25T00:58:00.908Z,36.30
2023-07-25T01:00:29.956Z,36.26
2023-07-25T01:02:58.746Z,36.26
2023-07-25T01:05:30.906Z,35.91
2023-07-25T01:08:01.924Z,36.29
2023-07-25T01:10:30.712Z,36.07
2023-07-25T01:12:59.330Z,36.24
2023-07-25T01:15:28.686Z,36.05
2023-07-25T01:17:57.203Z,36.38
2023-07-25T01:20:26.786Z,36.23
2023-07-25T01:22:57.254Z,35.83
2023-07-25T01:25:27.817Z,36.05
2023-07-25T01:27:56.198Z,36.10
2023-07-25T01:30:25.039Z,36.10
2023-07-25T01:32:54.114Z,36.25
2023-07-25T01:35:23.085Z,36.17
2023-07-25T01:37:51.615Z,36.35
2023-07-25T01:40:20.564Z,36.16
2023-07-25T01:42:50.452Z,36.05
2023-07-25T01:45:19.520Z,36.06
2023-07-25T01:47:48.202Z,35.90
2023-07-25T01:50:17.644Z,35.96
2023-07-25T01:52:46.090Z,36.25
2023-07-25T01:55:14.950Z,36.20
2023-07-25T01:57:43.613Z,36.05
2023-07-25T02:00:14.753Z,35.38
2023-07-25T02:02:43.242Z,35.92
2023-07-25T02:05:12.205Z,36.15
2023-07-25T02:07:40.614Z,36.03
2023-07-25T02:10:10.525Z,35.91
2023-07-25T02:12:38.959Z,36.29
2023-07-25T02:15:08.683Z,35.72
2023-07-25T02:17:38.395Z,35.50
2023-07-25T02:20:08.680Z,35.52
2023-07-25T02:22:37.141Z,35.59
2023-07-25T02:25:06.759Z,35.76
2023-07-25T02:27:35.732Z,35.69
2023-07-25T02:30:05.041Z,35.82
2023-07-25T02:32:33.605Z,35.85
2023-07-25T02:35:03.898Z,35.52
2023-07-25T02:37:32.436Z,35.72
2023-07-25T02:40:01.301Z,35.55
2023-07-25T02:42:29.820Z,36.07
2023-07-25T02:44:58.604Z,35.44
2023-07-25T02:47:27.057Z,35.71
2023-07-25T02:49:55.669Z,35.43
2023-07-25T02:52:25.642Z,34.99
2023-07-25T02:54:54.367Z,35.17
2023-07-25T02:57:22.846Z,35.02
2023-07-25T02:59:51.492Z,34.65
2023-07-25T03:02:19.970Z,34.47
2023-07-25T03:04:48.958Z,34.62
2023-07-25T03:07:17.282Z,34.37
2023-07-25T03:09:47.173Z,34.21
2023-07-25T03:12:15.939Z,34.45
2023-07-25T03:14:44.452Z,34.84
2023-07-25T03:17:12.963Z,34.43
2023-07-25T03:19:41.572Z,34.61
2023-07-25T03:22:09.832Z,35.04
2023-07-25T03:24:38.484Z,34.40
2023-07-25T03:27:08.593Z,34.26
2023-07-25T03:29:37.350Z,34.59
2023-07-25T03:32:05.838Z,34.61
2023-07-25T03:34:34.705Z,34.27
2023-07-25T03:37:02.996Z,34.19
2023-07-25T03:39:31.868Z,33.99
2023-07-25T03:42:00.488Z,33.99
2023-07-25T03:44:30.620Z,33.72
2023-07-25T03:46:58.854Z,34.03
2023-07-25T03:49:27.354Z,33.71
2023-07-25T03:51:56.041Z,33.82
2023-07-25T03:54:26.586Z,33.58
2023-07-25T03:56:55.028Z,33.31
2023-07-25T03:59:23.860Z,33.44
2023-07-25T04:01:53.775Z,32.89
2023-07-25T04:04:22.548Z,33.40
2023-07-25T04:06:51.023Z,32.95
2023-07-25T04:09:19.582Z,32.81
2023-07-25T04:11:47.959Z,32.93
2023-07-25T04:14:16.479Z,32.53
2023-07-25T04:16:44.745Z,32.20
2023-07-25T04:19:14.754Z,31.85
2023-07-25T04:21:43.027Z,31.78
2023-07-25T04:24:11.468Z,30.33
2023-07-25T04:26:39.726Z,30.31
2023-07-25T04:29:08.231Z,30.11
2023-07-25T04:31:36.452Z,29.57
2023-07-25T04:34:04.977Z,29.25
2023-07-25T04:36:34.945Z,28.66
2023-07-25T04:39:03.639Z,28.15
2023-07-25T04:41:32.184Z,27.81
2023-07-25T04:44:00.946Z,27.65
2023-07-25T04:46:31.592Z,27.48
2023-07-25T04:49:00.104Z,25.83
2023-07-25T04:51:28.592Z,25.85
2023-07-25T04:53:58.443Z,25.46
2023-07-25T04:56:26.733Z,25.50
2023-07-25T04:58:55.472Z,25.92
2023-07-25T05:01:23.889Z,26.05
2023-07-25T05:03:52.524Z,25.20
2023-07-25T05:06:20.809Z,25.06
2023-07-25T05:08:49.357Z,24.39
2023-07-25T05:11:19.227Z,23.47
2023-07-25T05:13:47.828Z,23.12
2023-07-25T05:16:16.531Z,21.80
2023-07-25T05:18:45.160Z,21.56
2023-07-25T05:21:13.351Z,21.05
2023-07-25T05:23:41.778Z,21.03
2023-07-25T05:26:10.114Z,20.40
2023-07-25T05:28:39.957Z,20.25
2023-07-25T05:31:08.251Z,19.19
2023-07-25T05:33:37.068Z,19.08
2023-07-25T05:36:05.914Z,18.74
2023-07-25T05:38:34.616Z,18.46
2023-07-25T05:41:03.081Z,18.18
2023-07-25T05:43:31.626Z,17.28
2023-07-25T05:46:01.422Z,16.83
2023-07-25T05:48:30.064Z,16.32
2023-07-25T05:50:58.321Z,16.05
2023-07-25T05:53:26.990Z,15.93
2023-07-25T05:55:55.204Z,15.30
2023-07-25T05:58:23.897Z,15.13
2023-07-25T06:00:52.353Z,14.92
2023-07-25T06:03:23.044Z,14.40
2023-07-25T06:05:51.499Z,13.37
2023-07-25T06:08:20.195Z,13.45
2023-07-25T06:10:48.627Z,13.17
2023-07-25T06:13:17.440Z,12.64
2023-07-25T06:15:46.769Z,12.72
2023-07-25T06:18:15.442Z,12.63
2023-07-25T06:20:45.213Z,12.02
2023-07-25T06:23:13.855Z,11.87
2023-07-25T06:25:42.283Z,11.79
2023-07-25T06:28:12.814Z,11.01
2023-07-25T06:30:41.075Z,11.39
2023-07-25T06:33:09.859Z,11.59
2023-07-25T06:35:38.165Z,11.22
2023-07-25T06:38:08.043Z,10.43
2023-07-25T06:40:36.400Z,10.15
2023-07-25T06:43:05.057Z,9.89
2023-07-25T06:45:33.378Z,9.43
2023-07-25T06:48:02.040Z,9.14
2023-07-25T06:50:33.993Z,9.13
2023-07-25T06:53:02.706Z,8.91
2023-07-25T06:55:32.607Z,8.65
2023-07-25T06:58:01.117Z,8.74
2023-07-25T07:00:29.653Z,8.56
2023-07-25T07:02:58.386Z,8.52
2023-07-25T07:05:30.700Z,8.40
2023-07-25T07:07:59.966Z,8.18
2023-07-25T07:10:28.733Z,8.13
2023-07-25T07:12:58.694Z,7.98
2023-07-25T07:15:27.424Z,8.44
2023-07-25T07:17:56.040Z,8.34
2023-07-25T07:20:24.490Z,7.37
2023-07-25T07:22:53.269Z,6.95
2023-07-25T07:25:21.612Z,6.99
2023-07-25T07:27:50.244Z,7.52
2023-07-25T07:30:20.295Z,8.15
2023-07-25T07:32:49.015Z,9.16
2023-07-25T07:35:17.311Z,9.47
2023-07-25T07:37:46.015Z,8.58
2023-07-25T07:40:14.698Z,8.56
2023-07-25T07:42:43.545Z,7.69
2023-07-25T07:45:12.220Z,7.16
2023-07-25T07:47:42.473Z,6.18
2023-07-25T07:50:11.306Z,5.83
2023-07-25T07:52:43.361Z,5.92
2023-07-25T07:55:12.822Z,5.84
2023-07-25T07:57:42.916Z,6.21
2023-07-25T08:00:13.031Z,6.40
2023-07-25T08:02:43.494Z,5.92
2023-07-25T08:05:13.042Z,5.14
2023-07-25T08:07:42.358Z,5.09
2023-07-25T08:10:11.341Z,4.60
2023-07-25T08:12:40.103Z,4.32
2023-07-25T08:15:09.217Z,3.69
2023-07-25T08:17:38.078Z,3.73
2023-07-25T08:20:09.331Z,3.36
2023-07-25T08:22:37.925Z,4.12
2023-07-25T08:25:07.122Z,4.70
2023-07-25T08:27:35.721Z,4.75
2023-07-25T08:30:04.325Z,4.40
2023-07-25T08:32:33.140Z,3.55
2023-07-25T08:35:01.713Z,3.27
2023-07-25T08:37:31.836Z,3.21
2023-07-25T08:40:00.465Z,2.69
2023-07-25T08:42:32.649Z,2.84
2023-07-25T08:45:02.173Z,3.30
2023-07-25T08:47:30.938Z,3.41
2023-07-25T08:50:00.036Z,3.61
2023-07-25T08:52:30.226Z,4.02
2023-07-25T08:55:00.087Z,5.51
2023-07-25T08:57:29.802Z,7.30
2023-07-25T08:59:58.500Z,8.02
2023-07-25T09:02:28.301Z,8.47
2023-07-25T09:04:56.898Z,8.78
2023-07-25T09:07:25.696Z,8.08
2023-07-25T09:09:53.931Z,7.26
2023-07-25T09:12:24.460Z,6.47
2023-07-25T09:14:53.742Z,5.51
2023-07-25T09:17:24.127Z,4.82
2023-07-25T09:19:52.980Z,4.11
2023-07-25T09:22:29.189Z,3.58
2023-07-25T09:24:58.490Z,3.46
2023-07-25T09:27:29.469Z,3.14
2023-07-25T09:29:58.194Z,3.74
2023-07-25T09:32:29.941Z,4.45
2023-07-25T09:35:01.279Z,5.13
2023-07-25T09:37:30.993Z,6.19
2023-07-25T09:40:00.030Z,6.27
2023-07-25T09:42:30.562Z,6.07
2023-07-25T09:44:59.474Z,6.08
2023-07-25T09:47:30.056Z,5.52
2023-07-25T09:49:58.914Z,5.93
2023-07-25T09:52:28.289Z,7.69
2023-07-25T09:54:57.099Z,9.38
2023-07-25T09:57:26.307Z,9.41
2023-07-25T09:59:57.138Z,8.58
2023-07-25T10:02:27.530Z,7.74
2023-07-25T10:04:59.677Z,6.70
2023-07-25T10:07:29.229Z,6.17
2023-07-25T10:09:59.462Z,6.16
2023-07-25T10:12:28.741Z,5.59
2023-07-25T10:14:59.150Z,6.17
2023-07-25T10:17:28.777Z,6.11
2023-07-25T10:19:58.310Z,5.18
2023-07-25T10:22:38.152Z,5.48
2023-07-25T10:25:11.663Z,4.68
2023-07-25T10:27:40.749Z,4.03
2023-07-25T10:30:25.203Z,4.12
2023-07-25T10:32:55.818Z,5.04
2023-07-25T10:35:44.605Z,5.16
2023-07-25T10:38:15.231Z,6.97
2023-07-25T10:40:58.611Z,7.34
2023-07-25T10:43:32.413Z,8.05
2023-07-25T10:46:05.386Z,9.39
2023-07-25T10:48:38.614Z,10.52
2023-07-25T10:51:09.016Z,10.76
2023-07-25T10:53:37.916Z,12.01
2023-07-25T10:56:17.694Z,12.13
2023-07-25T10:59:06.412Z,11.90
2023-07-25T11:01:53.799Z,12.62
2023-07-25T11:04:30.951Z,12.01
2023-07-25T11:07:00.701Z,12.51
2023-07-25T11:09:29.754Z,13.07
2023-07-25T11:11:58.209Z,12.92
2023-07-25T11:14:26.858Z,13.04
2023-07-25T11:16:57.445Z,13.51
2023-07-25T11:19:29.884Z,13.55
2023-07-25T11:21:58.505Z,14.01
2023-07-25T11:24:27.110Z,14.35
2023-07-25T11:26:55.416Z,14.75
2023-07-25T11:29:24.065Z,14.99
2023-07-25T11:31:52.565Z,15.32
2023-07-25T11:34:22.728Z,15.58
2023-07-25T11:36:51.075Z,15.79
2023-07-25T11:39:20.289Z,16.30
2023-07-25T11:41:48.880Z,16.46
2023-07-25T11:44:19.088Z,16.54
2023-07-25T11:46:50.871Z,16.22
2023-07-25T11:49:35.818Z,16.50
2023-07-25T11:52:11.136Z,16.30
2023-07-25T11:54:40.195Z,16.74
2023-07-25T11:57:12.231Z,16.49
2023-07-25T11:59:42.392Z,16.63
2023-07-25T12:02:12.450Z,16.97
2023-07-25T12:04:46.329Z,16.59
2023-07-25T12:07:17.456Z,16.55
2023-07-25T12:09:54.048Z,16.69
2023-07-25T12:12:23.030Z,17.26
2023-07-25T12:14:59.116Z,17.66
2023-07-25T12:17:43.079Z,17.79
2023-07-25T12:20:16.485Z,18.16
2023-07-25T12:22:46.619Z,18.28
2023-07-25T12:25:19.948Z,18.04
2023-07-25T12:27:49.633Z,18.50
2023-07-25T12:30:18.698Z,18.46
2023-07-25T12:32:47.342Z,18.80
2023-07-25T12:35:16.241Z,19.52
2023-07-25T12:37:46.166Z,19.66
2023-07-25T12:40:14.920Z,19.63
2023-07-25T12:42:43.426Z,19.90
2023-07-25T12:45:12.580Z,19.91
2023-07-25T12:47:41.268Z,21.00
2023-07-25T12:50:11.114Z,21.29
2023-07-25T12:52:39.817Z,21.95
2023-07-25T12:55:10.640Z,22.47
2023-07-25T12:57:39.445Z,22.82
2023-07-25T13:00:09.853Z,23.76
2023-07-25T13:02:39.101Z,24.57
2023-07-25T13:05:09.341Z,24.77
2023-07-25T13:07:38.052Z,25.10
2023-07-25T13:10:08.687Z,25.24
2023-07-25T13:12:39.098Z,25.45
2023-07-25T13:15:09.221Z,24.87
2023-07-25T13:17:37.837Z,25.66
2023-07-25T13:20:08.569Z,25.05
2023-07-25T13:22:37.508Z,25.30
2023-07-25T13:25:07.270Z,25.32
2023-07-25T13:27:35.675Z,25.54
2023-07-25T13:30:06.705Z,25.17
2023-07-25T13:32:35.459Z,25.00
2023-07-25T13:35:04.475Z,25.64
2023-07-25T13:37:33.270Z,25.78
2023-07-25T13:40:02.068Z,25.32
2023-07-25T13:42:30.822Z,25.69
2023-07-25T13:44:59.709Z,26.28
2023-07-25T13:47:29.613Z,25.96
2023-07-25T13:49:59.651Z,26.00
2023-07-25T13:52:28.189Z,26.47
2023-07-25T13:54:57.750Z,26.25
2023-07-25T13:57:33.630Z,26.78
2023-07-25T14:00:05.823Z,26.93
2023-07-25T14:02:36.490Z,26.88
2023-07-25T14:05:06.256Z,27.10
2023-07-25T14:07:34.861Z,27.15
2023-07-25T14:10:03.639Z,27.42
2023-07-25T14:12:32.183Z,28.30
2023-07-25T14:15:02.351Z,28.75
2023-07-25T14:17:31.280Z,28.36
2023-07-25T14:20:01.475Z,28.10
2023-07-25T14:22:30.285Z,28.50
2023-07-25T14:24:59.461Z,28.65
2023-07-25T14:27:28.278Z,29.09
2023-07-25T14:29:57.190Z,29.38
2023-07-25T14:32:26.976Z,29.40
2023-07-25T14:34:57.112Z,29.85
2023-07-25T14:37:34.091Z,29.74
2023-07-25T14:40:14.515Z,29.59
2023-07-25T14:42:42.958Z,30.06
2023-07-25T14:45:12.053Z,29.77
2023-07-25T14:47:41.128Z,29.96
2023-07-25T14:50:10.836Z,30.27
2023-07-25T14:52:40.741Z,30.27
2023-07-25T14:55:10.303Z,30.35
2023-07-25T14:57:38.828Z,30.64
2023-07-25T15:00:10.567Z,30.87
2023-07-25T15:02:39.561Z,31.23
2023-07-25T15:05:09.157Z,31.08
2023-07-25T15:07:37.629Z,31.27
2023-07-25T15:10:09.385Z,31.05
2023-07-25T15:12:37.924Z,31.18
2023-07-25T15:15:08.979Z,31.06
2023-07-25T15:17:37.767Z,31.43
2023-07-25T15:20:10.518Z,31.47
2023-07-25T15:22:39.619Z,31.51
2023-07-25T15:25:10.418Z,31.17
2023-07-25T15:27:38.971Z,31.49
2023-07-25T15:30:08.912Z,31.38
2023-07-25T15:32:37.868Z,31.56
2023-07-25T15:35:10.073Z,30.69
2023-07-25T15:37:39.144Z,31.12
2023-07-25T15:40:11.345Z,30.92
2023-07-25T15:42:40.077Z,30.90
2023-07-25T15:45:09.904Z,30.24
2023-07-25T15:47:38.482Z,29.65
2023-07-25T15:50:08.262Z,28.75
2023-07-25T15:52:37.055Z,27.68
2023-07-25T15:55:06.537Z,26.80
2023-07-25T15:57:36.447Z,26.17
2023-07-25T16:00:07.524Z,26.03
2023-07-25T16:02:36.439Z,26.06
2023-07-25T16:05:06.239Z,26.44
2023-07-25T16:07:35.977Z,26.83
2023-07-25T16:10:06.568Z,27.10
2023-07-25T16:12:36.848Z,27.06
2023-07-25T16:15:06.706Z,27.56
2023-07-25T16:17:35.418Z,27.94
2023-07-25T16:20:04.858Z,28.70
2023-07-25T16:22:33.630Z,28.69
2023-07-25T16:25:02.680Z,28.97
2023-07-25T16:27:31.356Z,29.18
2023-07-25T16:30:01.925Z,29.25
2023-07-25T16:32:30.657Z,29.57
2023-07-25T16:35:01.647Z,30.64
2023-07-25T16:37:30.236Z,30.94
2023-07-25T16:39:59.172Z,31.54
2023-07-25T16:42:27.574Z,31.69
2023-07-25T16:44:56.999Z,31.45
2023-07-25T16:47:26.983Z,30.39
2023-07-25T16:49:55.801Z,30.71
2023-07-25T16:52:24.474Z,30.21
2023-07-25T16:54:53.192Z,30.16
2023-07-25T16:57:21.764Z,30.09
2023-07-25T16:59:50.947Z,29.55
2023-07-25T17:02:19.608Z,29.30
2023-07-25T17:04:49.808Z,29.15
2023-07-25T17:07:18.564Z,28.72
2023-07-25T17:09:47.351Z,28.88
2023-07-25T17:12:15.796Z,28.89
2023-07-25T17:14:44.500Z,29.05
2023-07-25T17:17:13.891Z,28.73
2023-07-25T17:19:42.873Z,28.18
2023-07-25T17:22:12.800Z,27.77
2023-07-25T17:24:41.821Z,28.09
2023-07-25T17:27:10.261Z,28.11
2023-07-25T17:29:39.185Z,28.59
2023-07-25T17:32:08.147Z,29.10
2023-07-25T17:34:37.028Z,29.53
2023-07-25T17:37:07.898Z,29.52
2023-07-25T17:39:37.913Z,28.41
2023-07-25T17:42:06.411Z,29.37
2023-07-25T17:44:35.189Z,29.18
2023-07-25T17:47:04.291Z,28.99
2023-07-25T17:49:34.129Z,28.68
2023-07-25T17:52:02.499Z,28.93
2023-07-25T17:54:31.237Z,29.21
2023-07-25T17:57:01.117Z,29.16
2023-07-25T17:59:30.178Z,29.42
2023-07-25T18:01:58.719Z,30.03
2023-07-25T18:04:27.621Z,29.33
2023-07-25T18:06:56.220Z,29.89
2023-07-25T18:09:25.991Z,30.11
2023-07-25T18:11:54.593Z,29.66
2023-07-25T18:14:24.932Z,29.72
2023-07-25T18:16:53.612Z,30.03
2023-07-25T18:19:22.324Z,30.28
2023-07-25T18:21:52.964Z,30.43
2023-07-25T18:24:21.875Z,30.95
2023-07-25T18:26:51.624Z,31.64
2023-07-25T18:29:20.616Z,32.00
2023-07-25T18:31:50.508Z,31.87
2023-07-25T18:34:19.543Z,31.83
2023-07-25T18:36:48.423Z,33.12
2023-07-25T18:39:17.280Z,33.84
2023-07-25T18:41:45.795Z,33.84
2023-07-25T18:44:14.727Z,33.90
2023-07-25T18:46:43.502Z,34.36
2023-07-25T18:49:13.904Z,34.06
2023-07-25T18:51:42.574Z,34.40
2023-07-25T18:54:11.338Z,34.71
2023-07-25T18:56:40.028Z,34.79
2023-07-25T18:59:08.849Z,35.01
2023-07-25T19:01:37.406Z,35.19
2023-07-25T19:04:06.733Z,35.76
2023-07-25T19:06:36.708Z,35.37
2023-07-25T19:09:05.852Z,35.77
2023-07-25T19:11:34.298Z,36.01
2023-07-25T19:14:03.329Z,36.08
2023-07-25T19:16:32.395Z,35.65
2023-07-25T19:19:01.803Z,35.43
2023-07-25T19:21:30.453Z,35.78
2023-07-25T19:24:00.791Z,35.93
2023-07-25T19:26:29.259Z,36.18
2023-07-25T19:29:00.451Z,36.27
2023-07-25T19:31:30.118Z,35.83
2023-07-25T19:33:58.904Z,36.09
2023-07-25T19:36:27.368Z,35.67
2023-07-25T19:38:56.176Z,35.97
2023-07-25T19:41:26.041Z,36.01
2023-07-25T19:43:54.843Z,36.29
2023-07-25T19:46:23.595Z,35.56
2023-07-25T19:48:52.571Z,35.86
2023-07-25T19:51:21.510Z,36.41
2023-07-25T19:53:52.150Z,36.15
2023-07-25T19:56:20.642Z,35.97
2023-07-25T19:58:51.013Z,36.03
2023-07-25T20:01:19.765Z,36.67
2023-07-25T20:03:48.866Z,36.00
2023-07-25T20:06:17.540Z,36.25
2023-07-25T20:08:46.425Z,35.99
2023-07-25T20:11:15.127Z,36.00
2023-07-25T20:13:43.876Z,36.04
2023-07-25T20:16:13.750Z,35.89
2023-07-25T20:18:43.317Z,35.96
2023-07-25T20:21:15.184Z,35.86
2023-07-25T20:23:43.959Z,36.36
2023-07-25T20:26:13.376Z,36.16
2023-07-25T20:28:42.274Z,36.65
2023-07-25T20:31:11.118Z,36.27
2023-07-25T20:33:41.524Z,36.09
2023-07-25T20:36:10.243Z,36.44
2023-07-25T20:38:38.989Z,36.81
2023-07-25T20:41:07.603Z,36.41
2023-07-25T20:43:36.420Z,36.74
2023-07-25T20:46:05.422Z,36.79
2023-07-25T20:48:36.071Z,36.62
2023-07-25T20:51:05.979Z,36.42
2023-07-25T20:53:34.869Z,36.71
2023-07-25T20:56:03.604Z,36.46
2023-07-25T20:58:32.250Z,36.94
2023-07-25T21:01:01.189Z,36.68
2023-07-25T21:03:30.570Z,36.35
2023-07-25T21:06:00.201Z,36.22
2023-07-25T21:08:30.178Z,36.05
2023-07-25T21:10:59.770Z,36.24
2023-07-25T21:13:28.276Z,36.47
2023-07-25T21:15:57.653Z,36.07
2023-07-25T21:18:26.228Z,36.13
2023-07-25T21:20:55.044Z,35.96
2023-07-25T21:23:25.540Z,35.62
2023-07-25T21:25:55.844Z,35.64
2023-07-25T21:28:24.288Z,35.88
2023-07-25T21:30:54.222Z,36.01
2023-07-25T21:33:25.219Z,36.18
2023-07-25T21:36:09.268Z,35.13
2023-07-25T21:38:37.908Z,36.03
2023-07-25T21:41:09.258Z,35.57
2023-07-25T21:43:38.332Z,35.61
2023-07-25T21:46:07.482Z,35.84
2023-07-25T21:48:36.252Z,35.61
2023-07-25T21:51:05.356Z,35.91
2023-07-25T21:53:34.305Z,35.64
2023-07-25T21:56:03.370Z,35.72
2023-07-25T21:58:33.248Z,35.32
2023-07-25T22:01:02.507Z,35.59
2023-07-25T22:03:31.599Z,35.52
2023-07-25T22:06:02.039Z,34.82
2023-07-25T22:08:30.998Z,35.37
2023-07-25T22:10:59.898Z,35.24
2023-07-25T22:13:28.633Z,35.74
2023-07-25T22:15:59.113Z,35.66
2023-07-25T22:18:27.794Z,35.77
2023-07-25T22:20:56.742Z,35.71
2023-07-25T22:23:25.129Z,35.78
2023-07-25T22:26:00.682Z,35.18
2023-07-25T22:28:29.187Z,35.62
2023-07-25T22:31:01.693Z,35.42
2023-07-25T22:33:30.214Z,35.78
2023-07-25T22:35:58.996Z,35.74
2023-07-25T22:38:27.452Z,35.77
2023-07-25T22:40:56.193Z,35.30
2023-07-25T22:43:24.718Z,35.29
2023-07-25T22:45:53.674Z,35.76
2023-07-25T22:48:23.531Z,35.87
2023-07-25T22:50:52.265Z,35.84
2023-07-25T22:53:20.701Z,35.87
2023-07-25T22:55:49.563Z,36.23
2023-07-25T22:58:18.087Z,36.29
2023-07-25T23:00:48.027Z,36.22
2023-07-25T23:03:16.879Z,36.39
2023-07-25T23:05:48.524Z,36.01
2023-07-25T23:08:16.795Z,34.83
2023-07-25T23:10:45.767Z,36.31
2023-07-25T23:13:14.327Z,36.74
2023-07-25T23:15:44.145Z,36.57
2023-07-25T23:18:12.750Z,36.84
2023-07-25T23:20:41.667Z,37.24
2023-07-25T23:23:11.775Z,36.51
2023-07-25T23:25:40.527Z,37.08
2023-07-25T23:28:08.875Z,36.79
2023-07-25T23:30:37.758Z,36.82
2023-07-25T23:33:06.159Z,36.67
2023-07-25T23:35:35.001Z,36.83
2023-07-25T23:38:03.829Z,37.19
2023-07-25T23:40:33.954Z,36.89
2023-07-25T23:43:03.348Z,36.86
2023-07-25T23:45:34.001Z,36.97
2023-07-25T23:48:02.385Z,36.83
2023-07-25T23:50:31.074Z,36.61
2023-07-25T23:52:59.416Z,36.73
2023-07-25T23:55:28.171Z,36.89
2023-07-25T23:57:57.895Z,36.46
